sensor_id;sensor_type;location;lat;lon;timestamp;temperature;humidity
13115;DHT22;6623;52.120;8.660;2023-06-14T00:02:02;26.70;43.50
13115;DHT22;6623;52.120;8.660;2023-06-14T00:04:28;26.70;43.40
13115;DHT22;6623;52.120;8.660;2023-06-14T00:06:54;26.70;43.50
13115;DHT22;6623;52.120;8.660;2023-06-14T00:09:22;26.70;43.50
13115;DHT22;6623;52.120;8.660;2023-06-14T00:11:47;26.70;43.50
13115;DHT22;6623;52.120;8.660;2023-06-14T00:14:13;26.70;43.50
13115;DHT22;6623;52.120;8.660;2023-06-14T00:16:40;26.70;43.50
13115;DHT22;6623;52.120;8.660;2023-06-14T00:19:08;26.70;43.50
13115;DHT22;6623;52.120;8.660;2023-06-14T00:21:33;26.70;43.50
13115;DHT22;6623;52.120;8.660;2023-06-14T00:24:00;26.70;43.50
13115;DHT22;6623;52.120;8.660;2023-06-14T00:26:26;26.70;43.50
13115;DHT22;6623;52.120;8.660;2023-06-14T00:28:52;26.70;43.50
13115;DHT22;6623;52.120;8.660;2023-06-14T00:31:18;26.70;43.50
13115;DHT22;6623;52.120;8.660;2023-06-14T00:33:44;26.70;43.50
13115;DHT22;6623;52.120;8.660;2023-06-14T00:36:09;26.70;43.50
13115;DHT22;6623;52.120;8.660;2023-06-14T00:38:35;26.70;43.50
13115;DHT22;6623;52.120;8.660;2023-06-14T00:41:00;26.70;43.50
13115;DHT22;6623;52.120;8.660;2023-06-14T00:43:26;26.70;43.50
13115;DHT22;6623;52.120;8.660;2023-06-14T00:45:51;26.70;43.50
13115;DHT22;6623;52.120;8.660;2023-06-14T00:48:17;26.70;43.50
13115;DHT22;6623;52.120;8.660;2023-06-14T00:50:44;26.70;43.50
13115;DHT22;6623;52.120;8.660;2023-06-14T00:53:14;26.70;43.50
13115;DHT22;6623;52.120;8.660;2023-06-14T00:55:42;26.70;43.50
13115;DHT22;6623;52.120;8.660;2023-06-14T00:58:09;26.70;43.50
13115;DHT22;6623;52.120;8.660;2023-06-14T01:00:35;26.70;43.50
13115;DHT22;6623;52.120;8.660;2023-06-14T01:03:01;26.70;43.50
13115;DHT22;6623;52.120;8.660;2023-06-14T01:05:27;26.70;43.50
13115;DHT22;6623;52.120;8.660;2023-06-14T01:08:15;26.70;43.40
13115;DHT22;6623;52.120;8.660;2023-06-14T01:10:53;26.70;43.50
13115;DHT22;6623;52.120;8.660;2023-06-14T01:13:34;26.70;43.50
13115;DHT22;6623;52.120;8.660;2023-06-14T01:16:01;26.70;43.50
13115;DHT22;6623;52.120;8.660;2023-06-14T01:18:30;26.70;43.50
13115;DHT22;6623;52.120;8.660;2023-06-14T01:20:57;26.70;43.40
13115;DHT22;6623;52.120;8.660;2023-06-14T01:23:23;26.70;43.40
13115;DHT22;6623;52.120;8.660;2023-06-14T01:25:50;26.70;43.40
13115;DHT22;6623;52.120;8.660;2023-06-14T01:28:19;26.70;43.40
13115;DHT22;6623;52.120;8.660;2023-06-14T01:30:47;26.70;43.40
13115;DHT22;6623;52.120;8.660;2023-06-14T01:33:19;26.70;43.40
13115;DHT22;6623;52.120;8.660;2023-06-14T01:35:48;26.70;43.50
13115;DHT22;6623;52.120;8.660;2023-06-14T01:38:14;26.70;43.50
13115;DHT22;6623;52.120;8.660;2023-06-14T01:40:42;26.70;43.40
13115;DHT22;6623;52.120;8.660;2023-06-14T01:43:11;26.70;43.40
13115;DHT22;6623;52.120;8.660;2023-06-14T01:45:39;26.70;43.40
13115;DHT22;6623;52.120;8.660;2023-06-14T01:48:05;26.70;43.40
13115;DHT22;6623;52.120;8.660;2023-06-14T01:50:31;26.70;43.40
13115;DHT22;6623;52.120;8.660;2023-06-14T01:52:57;26.70;43.40
13115;DHT22;6623;52.120;8.660;2023-06-14T01:55:22;26.70;43.30
13115;DHT22;6623;52.120;8.660;2023-06-14T01:57:50;26.70;43.30
13115;DHT22;6623;52.120;8.660;2023-06-14T02:00:16;26.70;43.30
13115;DHT22;6623;52.120;8.660;2023-06-14T02:02:43;26.70;43.40
13115;DHT22;6623;52.120;8.660;2023-06-14T02:05:09;26.60;43.30
13115;DHT22;6623;52.120;8.660;2023-06-14T02:07:35;26.70;43.30
13115;DHT22;6623;52.120;8.660;2023-06-14T02:10:01;26.70;43.30
13115;DHT22;6623;52.120;8.660;2023-06-14T02:12:27;26.60;43.20
13115;DHT22;6623;52.120;8.660;2023-06-14T02:14:52;26.70;43.30
13115;DHT22;6623;52.120;8.660;2023-06-14T02:17:19;26.70;43.30
13115;DHT22;6623;52.120;8.660;2023-06-14T02:19:45;26.70;43.30
13115;DHT22;6623;52.120;8.660;2023-06-14T02:22:10;26.70;43.30
13115;DHT22;6623;52.120;8.660;2023-06-14T02:24:36;26.70;43.30
13115;DHT22;6623;52.120;8.660;2023-06-14T02:27:02;26.70;43.90
13115;DHT22;6623;52.120;8.660;2023-06-14T02:29:27;26.70;43.30
13115;DHT22;6623;52.120;8.660;2023-06-14T02:31:53;26.70;43.30
13115;DHT22;6623;52.120;8.660;2023-06-14T02:34:18;26.70;43.30
13115;DHT22;6623;52.120;8.660;2023-06-14T02:36:45;26.60;43.20
13115;DHT22;6623;52.120;8.660;2023-06-14T02:39:11;26.70;43.90
13115;DHT22;6623;52.120;8.660;2023-06-14T02:41:37;26.70;43.30
13115;DHT22;6623;52.120;8.660;2023-06-14T02:44:03;26.70;43.30
13115;DHT22;6623;52.120;8.660;2023-06-14T02:46:28;26.70;43.30
13115;DHT22;6623;52.120;8.660;2023-06-14T02:48:54;26.70;43.30
13115;DHT22;6623;52.120;8.660;2023-06-14T02:51:19;26.70;43.30
13115;DHT22;6623;52.120;8.660;2023-06-14T02:53:45;26.70;43.30
13115;DHT22;6623;52.120;8.660;2023-06-14T02:56:10;26.60;43.20
13115;DHT22;6623;52.120;8.660;2023-06-14T02:58:37;26.70;43.30
13115;DHT22;6623;52.120;8.660;2023-06-14T03:01:07;26.60;43.20
13115;DHT22;6623;52.120;8.660;2023-06-14T03:03:33;26.70;43.30
13115;DHT22;6623;52.120;8.660;2023-06-14T03:05:58;26.70;43.30
13115;DHT22;6623;52.120;8.660;2023-06-14T03:08:29;26.60;43.20
13115;DHT22;6623;52.120;8.660;2023-06-14T03:10:55;26.70;43.20
13115;DHT22;6623;52.120;8.660;2023-06-14T03:13:21;26.70;43.30
13115;DHT22;6623;52.120;8.660;2023-06-14T03:15:47;26.60;43.20
13115;DHT22;6623;52.120;8.660;2023-06-14T03:18:15;26.70;43.30
13115;DHT22;6623;52.120;8.660;2023-06-14T03:20:41;26.60;43.20
13115;DHT22;6623;52.120;8.660;2023-06-14T03:23:08;26.60;43.20
13115;DHT22;6623;52.120;8.660;2023-06-14T03:25:34;26.60;43.20
13115;DHT22;6623;52.120;8.660;2023-06-14T03:28:04;26.60;43.20
13115;DHT22;6623;52.120;8.660;2023-06-14T03:30:31;26.60;43.20
13115;DHT22;6623;52.120;8.660;2023-06-14T03:32:57;26.60;43.20
13115;DHT22;6623;52.120;8.660;2023-06-14T03:35:23;26.60;43.20
13115;DHT22;6623;52.120;8.660;2023-06-14T03:37:49;26.60;43.20
13115;DHT22;6623;52.120;8.660;2023-06-14T03:40:17;26.60;43.20
13115;DHT22;6623;52.120;8.660;2023-06-14T03:42:43;26.70;43.30
13115;DHT22;6623;52.120;8.660;2023-06-14T03:45:08;26.60;43.20
13115;DHT22;6623;52.120;8.660;2023-06-14T03:47:34;26.70;43.30
13115;DHT22;6623;52.120;8.660;2023-06-14T03:50:00;26.60;43.20
13115;DHT22;6623;52.120;8.660;2023-06-14T03:52:26;26.60;43.20
13115;DHT22;6623;52.120;8.660;2023-06-14T03:54:52;26.60;43.20
13115;DHT22;6623;52.120;8.660;2023-06-14T03:57:18;26.60;43.20
13115;DHT22;6623;52.120;8.660;2023-06-14T03:59:44;26.70;43.30
13115;DHT22;6623;52.120;8.660;2023-06-14T04:02:10;26.60;43.20
13115;DHT22;6623;52.120;8.660;2023-06-14T04:04:36;26.60;43.20
13115;DHT22;6623;52.120;8.660;2023-06-14T04:07:02;26.70;43.20
13115;DHT22;6623;52.120;8.660;2023-06-14T04:09:29;26.60;43.10
13115;DHT22;6623;52.120;8.660;2023-06-14T04:11:55;26.60;43.20
13115;DHT22;6623;52.120;8.660;2023-06-14T04:14:21;26.60;43.20
13115;DHT22;6623;52.120;8.660;2023-06-14T04:16:48;26.70;43.20
13115;DHT22;6623;52.120;8.660;2023-06-14T04:19:14;26.70;43.30
13115;DHT22;6623;52.120;8.660;2023-06-14T04:21:39;26.60;43.20
13115;DHT22;6623;52.120;8.660;2023-06-14T04:24:05;26.70;43.20
13115;DHT22;6623;52.120;8.660;2023-06-14T04:26:32;26.60;43.20
13115;DHT22;6623;52.120;8.660;2023-06-14T04:28:59;26.60;43.20
13115;DHT22;6623;52.120;8.660;2023-06-14T04:31:30;26.60;43.10
13115;DHT22;6623;52.120;8.660;2023-06-14T04:33:59;26.70;43.20
13115;DHT22;6623;52.120;8.660;2023-06-14T04:36:25;26.60;43.10
13115;DHT22;6623;52.120;8.660;2023-06-14T04:38:53;26.60;43.20
13115;DHT22;6623;52.120;8.660;2023-06-14T04:41:22;26.60;43.80
13115;DHT22;6623;52.120;8.660;2023-06-14T04:43:49;26.60;43.20
13115;DHT22;6623;52.120;8.660;2023-06-14T04:46:15;26.60;43.20
13115;DHT22;6623;52.120;8.660;2023-06-14T04:48:40;26.60;43.20
13115;DHT22;6623;52.120;8.660;2023-06-14T04:51:08;26.70;43.30
13115;DHT22;6623;52.120;8.660;2023-06-14T04:53:34;26.60;43.20
13115;DHT22;6623;52.120;8.660;2023-06-14T04:56:00;26.60;43.20
13115;DHT22;6623;52.120;8.660;2023-06-14T04:58:26;26.70;43.20
13115;DHT22;6623;52.120;8.660;2023-06-14T05:00:53;26.60;43.10
13115;DHT22;6623;52.120;8.660;2023-06-14T05:03:18;26.60;43.10
13115;DHT22;6623;52.120;8.660;2023-06-14T05:05:46;26.70;43.30
13115;DHT22;6623;52.120;8.660;2023-06-14T05:08:11;26.60;43.20
13115;DHT22;6623;52.120;8.660;2023-06-14T05:10:37;26.60;43.20
13115;DHT22;6623;52.120;8.660;2023-06-14T05:13:03;26.60;43.20
13115;DHT22;6623;52.120;8.660;2023-06-14T05:15:29;26.60;43.20
13115;DHT22;6623;52.120;8.660;2023-06-14T05:17:54;26.60;43.20
13115;DHT22;6623;52.120;8.660;2023-06-14T05:20:24;26.60;43.20
13115;DHT22;6623;52.120;8.660;2023-06-14T05:22:53;26.60;43.20
13115;DHT22;6623;52.120;8.660;2023-06-14T05:25:22;26.60;43.20
13115;DHT22;6623;52.120;8.660;2023-06-14T05:27:48;26.60;43.20
13115;DHT22;6623;52.120;8.660;2023-06-14T05:30:15;26.60;43.10
13115;DHT22;6623;52.120;8.660;2023-06-14T05:32:41;26.60;43.10
13115;DHT22;6623;52.120;8.660;2023-06-14T05:35:07;26.60;43.10
13115;DHT22;6623;52.120;8.660;2023-06-14T05:37:33;26.60;43.10
13115;DHT22;6623;52.120;8.660;2023-06-14T05:39:58;26.60;43.20
13115;DHT22;6623;52.120;8.660;2023-06-14T05:42:24;26.60;43.20
13115;DHT22;6623;52.120;8.660;2023-06-14T05:44:49;26.60;43.10
13115;DHT22;6623;52.120;8.660;2023-06-14T05:47:16;26.60;43.10
13115;DHT22;6623;52.120;8.660;2023-06-14T05:49:41;26.60;43.20
13115;DHT22;6623;52.120;8.660;2023-06-14T05:52:07;26.60;43.10
13115;DHT22;6623;52.120;8.660;2023-06-14T05:54:33;26.60;43.20
13115;DHT22;6623;52.120;8.660;2023-06-14T05:56:58;26.60;43.20
13115;DHT22;6623;52.120;8.660;2023-06-14T05:59:27;26.60;43.20
13115;DHT22;6623;52.120;8.660;2023-06-14T06:01:52;26.60;43.20
13115;DHT22;6623;52.120;8.660;2023-06-14T06:04:18;26.60;43.20
13115;DHT22;6623;52.120;8.660;2023-06-14T06:06:44;26.60;43.20
13115;DHT22;6623;52.120;8.660;2023-06-14T06:09:09;26.60;43.20
13115;DHT22;6623;52.120;8.660;2023-06-14T06:11:34;26.60;43.20
13115;DHT22;6623;52.120;8.660;2023-06-14T06:14:00;26.60;43.20
13115;DHT22;6623;52.120;8.660;2023-06-14T06:16:25;26.60;43.20
13115;DHT22;6623;52.120;8.660;2023-06-14T06:18:51;26.60;43.20
13115;DHT22;6623;52.120;8.660;2023-06-14T06:21:17;26.60;43.20
13115;DHT22;6623;52.120;8.660;2023-06-14T06:23:43;26.60;43.20
13115;DHT22;6623;52.120;8.660;2023-06-14T06:26:08;26.60;43.20
13115;DHT22;6623;52.120;8.660;2023-06-14T06:28:34;26.60;43.20
13115;DHT22;6623;52.120;8.660;2023-06-14T06:31:00;26.60;43.20
13115;DHT22;6623;52.120;8.660;2023-06-14T06:33:25;26.60;43.30
13115;DHT22;6623;52.120;8.660;2023-06-14T06:35:51;26.60;43.30
13115;DHT22;6623;52.120;8.660;2023-06-14T06:38:16;26.60;43.30
13115;DHT22;6623;52.120;8.660;2023-06-14T06:40:44;26.60;43.30
13115;DHT22;6623;52.120;8.660;2023-06-14T06:43:09;26.60;43.40
13115;DHT22;6623;52.120;8.660;2023-06-14T06:45:39;26.60;43.30
13115;DHT22;6623;52.120;8.660;2023-06-14T06:48:04;26.60;43.40
13115;DHT22;6623;52.120;8.660;2023-06-14T06:50:30;26.60;43.30
13115;DHT22;6623;52.120;8.660;2023-06-14T06:52:55;26.60;43.40
13115;DHT22;6623;52.120;8.660;2023-06-14T06:55:21;26.60;43.40
13115;DHT22;6623;52.120;8.660;2023-06-14T06:57:47;26.60;43.40
13115;DHT22;6623;52.120;8.660;2023-06-14T07:00:12;26.70;43.50
13115;DHT22;6623;52.120;8.660;2023-06-14T07:02:38;26.60;43.40
13115;DHT22;6623;52.120;8.660;2023-06-14T07:05:04;26.60;43.40
13115;DHT22;6623;52.120;8.660;2023-06-14T07:07:29;26.60;43.40
13115;DHT22;6623;52.120;8.660;2023-06-14T07:09:56;26.60;43.40
13115;DHT22;6623;52.120;8.660;2023-06-14T07:12:23;26.60;43.40
13115;DHT22;6623;52.120;8.660;2023-06-14T07:14:48;26.60;43.40
13115;DHT22;6623;52.120;8.660;2023-06-14T07:17:14;26.60;43.40
13115;DHT22;6623;52.120;8.660;2023-06-14T07:19:39;26.60;43.50
13115;DHT22;6623;52.120;8.660;2023-06-14T07:22:05;26.60;43.50
13115;DHT22;6623;52.120;8.660;2023-06-14T07:24:30;26.60;43.50
13115;DHT22;6623;52.120;8.660;2023-06-14T07:26:56;26.60;43.50
13115;DHT22;6623;52.120;8.660;2023-06-14T07:29:21;26.60;43.50
13115;DHT22;6623;52.120;8.660;2023-06-14T07:31:47;26.60;43.50
13115;DHT22;6623;52.120;8.660;2023-06-14T07:34:13;26.60;43.50
13115;DHT22;6623;52.120;8.660;2023-06-14T07:36:38;26.60;43.60
13115;DHT22;6623;52.120;8.660;2023-06-14T07:39:04;26.60;43.60
13115;DHT22;6623;52.120;8.660;2023-06-14T07:41:31;26.60;43.50
13115;DHT22;6623;52.120;8.660;2023-06-14T07:43:56;26.60;43.50
13115;DHT22;6623;52.120;8.660;2023-06-14T07:46:22;26.60;43.50
13115;DHT22;6623;52.120;8.660;2023-06-14T07:48:47;26.60;43.50
13115;DHT22;6623;52.120;8.660;2023-06-14T07:51:13;26.60;43.50
13115;DHT22;6623;52.120;8.660;2023-06-14T07:53:39;26.60;43.50
13115;DHT22;6623;52.120;8.660;2023-06-14T07:56:06;26.60;43.50
13115;DHT22;6623;52.120;8.660;2023-06-14T07:58:31;26.60;43.50
13115;DHT22;6623;52.120;8.660;2023-06-14T08:00:57;26.60;43.70
13115;DHT22;6623;52.120;8.660;2023-06-14T08:03:22;26.60;43.50
13115;DHT22;6623;52.120;8.660;2023-06-14T08:05:49;26.60;43.50
13115;DHT22;6623;52.120;8.660;2023-06-14T08:08:14;26.60;44.10
13115;DHT22;6623;52.120;8.660;2023-06-14T08:10:41;26.60;43.50
13115;DHT22;6623;52.120;8.660;2023-06-14T08:13:06;26.60;43.50
13115;DHT22;6623;52.120;8.660;2023-06-14T08:15:32;26.60;43.50
13115;DHT22;6623;52.120;8.660;2023-06-14T08:17:57;26.60;43.50
13115;DHT22;6623;52.120;8.660;2023-06-14T08:20:24;26.70;43.60
13115;DHT22;6623;52.120;8.660;2023-06-14T08:22:50;26.60;43.50
13115;DHT22;6623;52.120;8.660;2023-06-14T08:25:20;26.60;43.60
13115;DHT22;6623;52.120;8.660;2023-06-14T08:27:46;26.60;43.50
13115;DHT22;6623;52.120;8.660;2023-06-14T08:30:12;26.60;43.50
13115;DHT22;6623;52.120;8.660;2023-06-14T08:32:37;26.60;43.50
13115;DHT22;6623;52.120;8.660;2023-06-14T08:35:04;26.60;43.50
13115;DHT22;6623;52.120;8.660;2023-06-14T08:37:31;26.70;43.60
13115;DHT22;6623;52.120;8.660;2023-06-14T08:39:58;26.60;43.60
13115;DHT22;6623;52.120;8.660;2023-06-14T08:42:24;26.60;43.60
13115;DHT22;6623;52.120;8.660;2023-06-14T08:44:50;26.60;43.50
13115;DHT22;6623;52.120;8.660;2023-06-14T08:47:16;26.60;43.50
13115;DHT22;6623;52.120;8.660;2023-06-14T08:49:46;26.70;43.60
13115;DHT22;6623;52.120;8.660;2023-06-14T08:52:13;26.60;43.50
13115;DHT22;6623;52.120;8.660;2023-06-14T08:54:44;26.60;43.50
13115;DHT22;6623;52.120;8.660;2023-06-14T08:57:13;26.70;43.60
13115;DHT22;6623;52.120;8.660;2023-06-14T08:59:47;26.70;43.60
13115;DHT22;6623;52.120;8.660;2023-06-14T09:02:18;26.60;43.50
13115;DHT22;6623;52.120;8.660;2023-06-14T09:04:47;26.70;43.60
13115;DHT22;6623;52.120;8.660;2023-06-14T09:07:14;26.60;43.50
13115;DHT22;6623;52.120;8.660;2023-06-14T09:09:41;26.70;43.60
13115;DHT22;6623;52.120;8.660;2023-06-14T09:12:09;26.70;43.60
13115;DHT22;6623;52.120;8.660;2023-06-14T09:14:36;26.70;43.60
13115;DHT22;6623;52.120;8.660;2023-06-14T09:17:05;26.70;43.60
13115;DHT22;6623;52.120;8.660;2023-06-14T09:19:31;26.70;43.60
13115;DHT22;6623;52.120;8.660;2023-06-14T09:21:56;26.70;43.60
13115;DHT22;6623;52.120;8.660;2023-06-14T09:24:24;26.70;43.60
13115;DHT22;6623;52.120;8.660;2023-06-14T09:26:53;26.70;43.60
13115;DHT22;6623;52.120;8.660;2023-06-14T09:29:19;26.70;43.60
13115;DHT22;6623;52.120;8.660;2023-06-14T09:31:47;26.70;43.60
13115;DHT22;6623;52.120;8.660;2023-06-14T09:34:13;26.70;43.70
13115;DHT22;6623;52.120;8.660;2023-06-14T09:36:42;26.70;43.60
13115;DHT22;6623;52.120;8.660;2023-06-14T09:39:08;26.70;43.70
13115;DHT22;6623;52.120;8.660;2023-06-14T09:41:35;26.70;43.60
13115;DHT22;6623;52.120;8.660;2023-06-14T09:44:05;26.70;43.60
13115;DHT22;6623;52.120;8.660;2023-06-14T09:46:32;26.70;43.60
13115;DHT22;6623;52.120;8.660;2023-06-14T09:48:58;26.70;43.60
13115;DHT22;6623;52.120;8.660;2023-06-14T09:51:25;26.70;43.60
13115;DHT22;6623;52.120;8.660;2023-06-14T09:53:52;26.70;43.60
13115;DHT22;6623;52.120;8.660;2023-06-14T09:56:29;26.70;43.60
13115;DHT22;6623;52.120;8.660;2023-06-14T09:58:59;26.70;43.60
13115;DHT22;6623;52.120;8.660;2023-06-14T10:01:27;26.70;43.60
13115;DHT22;6623;52.120;8.660;2023-06-14T10:03:59;26.70;43.60
13115;DHT22;6623;52.120;8.660;2023-06-14T10:06:26;26.70;43.60
13115;DHT22;6623;52.120;8.660;2023-06-14T10:08:57;26.70;43.60
13115;DHT22;6623;52.120;8.660;2023-06-14T10:11:23;26.70;43.60
13115;DHT22;6623;52.120;8.660;2023-06-14T10:13:50;26.70;43.60
13115;DHT22;6623;52.120;8.660;2023-06-14T10:24:13;26.70;43.60
13115;DHT22;6623;52.120;8.660;2023-06-14T10:26:51;26.70;43.60
13115;DHT22;6623;52.120;8.660;2023-06-14T10:29:17;26.70;43.70
13115;DHT22;6623;52.120;8.660;2023-06-14T10:31:44;26.70;43.60
13115;DHT22;6623;52.120;8.660;2023-06-14T10:34:11;26.70;43.70
13115;DHT22;6623;52.120;8.660;2023-06-14T10:36:40;26.70;43.60
13115;DHT22;6623;52.120;8.660;2023-06-14T10:39:17;26.70;43.70
13115;DHT22;6623;52.120;8.660;2023-06-14T10:41:52;26.70;43.70
13115;DHT22;6623;52.120;8.660;2023-06-14T10:46:53;26.70;43.70
13115;DHT22;6623;52.120;8.660;2023-06-14T10:49:19;26.70;43.70
13115;DHT22;6623;52.120;8.660;2023-06-14T10:51:49;26.70;43.70
13115;DHT22;6623;52.120;8.660;2023-06-14T10:54:16;26.70;43.60
13115;DHT22;6623;52.120;8.660;2023-06-14T10:56:53;26.70;43.70
13115;DHT22;6623;52.120;8.660;2023-06-14T10:59:19;26.70;43.60
13115;DHT22;6623;52.120;8.660;2023-06-14T11:04:44;26.70;43.70
13115;DHT22;6623;52.120;8.660;2023-06-14T11:07:52;26.80;43.70
13115;DHT22;6623;52.120;8.660;2023-06-14T11:10:36;26.70;43.70
13115;DHT22;6623;52.120;8.660;2023-06-14T11:13:03;26.70;43.60
13115;DHT22;6623;52.120;8.660;2023-06-14T11:15:29;26.70;43.70
13115;DHT22;6623;52.120;8.660;2023-06-14T11:17:56;26.70;43.70
13115;DHT22;6623;52.120;8.660;2023-06-14T11:20:26;26.70;43.70
13115;DHT22;6623;52.120;8.660;2023-06-14T11:22:52;26.70;43.70
13115;DHT22;6623;52.120;8.660;2023-06-14T11:25:18;26.70;43.70
13115;DHT22;6623;52.120;8.660;2023-06-14T11:27:44;26.70;43.70
13115;DHT22;6623;52.120;8.660;2023-06-14T11:30:11;26.70;43.70
13115;DHT22;6623;52.120;8.660;2023-06-14T11:32:37;26.70;43.70
13115;DHT22;6623;52.120;8.660;2023-06-14T11:35:04;26.70;43.70
13115;DHT22;6623;52.120;8.660;2023-06-14T11:37:33;26.80;43.80
13115;DHT22;6623;52.120;8.660;2023-06-14T11:39:59;26.70;43.70
13115;DHT22;6623;52.120;8.660;2023-06-14T11:42:28;26.70;43.70
13115;DHT22;6623;52.120;8.660;2023-06-14T11:44:54;26.70;43.70
13115;DHT22;6623;52.120;8.660;2023-06-14T11:47:20;26.70;44.30
13115;DHT22;6623;52.120;8.660;2023-06-14T11:49:46;26.80;43.80
13115;DHT22;6623;52.120;8.660;2023-06-14T11:52:12;26.70;43.70
13115;DHT22;6623;52.120;8.660;2023-06-14T11:54:38;26.80;43.80
13115;DHT22;6623;52.120;8.660;2023-06-14T11:57:09;26.70;43.70
13115;DHT22;6623;52.120;8.660;2023-06-14T11:59:39;26.80;43.80
13115;DHT22;6623;52.120;8.660;2023-06-14T12:02:06;26.70;43.70
13115;DHT22;6623;52.120;8.660;2023-06-14T12:04:32;26.80;43.70
13115;DHT22;6623;52.120;8.660;2023-06-14T12:07:11;26.70;43.70
13115;DHT22;6623;52.120;8.660;2023-06-14T12:12:27;26.80;43.70
13115;DHT22;6623;52.120;8.660;2023-06-14T12:14:54;26.80;43.70
13115;DHT22;6623;52.120;8.660;2023-06-14T12:17:22;26.80;43.70
13115;DHT22;6623;52.120;8.660;2023-06-14T12:19:49;26.80;43.80
13115;DHT22;6623;52.120;8.660;2023-06-14T12:22:16;26.80;43.70
13115;DHT22;6623;52.120;8.660;2023-06-14T12:24:45;26.80;43.70
13115;DHT22;6623;52.120;8.660;2023-06-14T12:27:12;26.80;43.70
13115;DHT22;6623;52.120;8.660;2023-06-14T12:29:41;26.80;43.70
13115;DHT22;6623;52.120;8.660;2023-06-14T12:32:09;26.80;43.70
13115;DHT22;6623;52.120;8.660;2023-06-14T12:34:34;26.80;44.30
13115;DHT22;6623;52.120;8.660;2023-06-14T12:37:01;26.80;43.60
13115;DHT22;6623;52.120;8.660;2023-06-14T12:39:26;26.80;43.70
13115;DHT22;6623;52.120;8.660;2023-06-14T12:41:53;26.80;43.60
13115;DHT22;6623;52.120;8.660;2023-06-14T12:44:18;26.80;43.60
13115;DHT22;6623;52.120;8.660;2023-06-14T12:46:44;26.80;43.60
13115;DHT22;6623;52.120;8.660;2023-06-14T12:49:10;26.80;43.60
13115;DHT22;6623;52.120;8.660;2023-06-14T12:51:37;26.80;43.60
13115;DHT22;6623;52.120;8.660;2023-06-14T12:54:03;26.80;43.60
13115;DHT22;6623;52.120;8.660;2023-06-14T12:56:28;26.80;43.60
13115;DHT22;6623;52.120;8.660;2023-06-14T12:58:54;26.80;43.60
13115;DHT22;6623;52.120;8.660;2023-06-14T13:01:20;26.80;43.60
13115;DHT22;6623;52.120;8.660;2023-06-14T13:03:46;26.80;43.60
13115;DHT22;6623;52.120;8.660;2023-06-14T13:06:12;26.80;43.60
13115;DHT22;6623;52.120;8.660;2023-06-14T13:08:38;26.80;43.60
13115;DHT22;6623;52.120;8.660;2023-06-14T13:11:03;26.80;43.60
13115;DHT22;6623;52.120;8.660;2023-06-14T13:13:29;26.80;43.60
13115;DHT22;6623;52.120;8.660;2023-06-14T13:15:54;26.80;43.60
13115;DHT22;6623;52.120;8.660;2023-06-14T13:18:20;26.80;43.60
13115;DHT22;6623;52.120;8.660;2023-06-14T13:20:46;26.80;43.60
13115;DHT22;6623;52.120;8.660;2023-06-14T13:23:12;26.80;43.50
13115;DHT22;6623;52.120;8.660;2023-06-14T13:25:38;26.80;43.60
13115;DHT22;6623;52.120;8.660;2023-06-14T13:28:04;26.80;43.60
13115;DHT22;6623;52.120;8.660;2023-06-14T13:30:30;26.80;43.50
13115;DHT22;6623;52.120;8.660;2023-06-14T13:32:56;26.80;43.60
13115;DHT22;6623;52.120;8.660;2023-06-14T13:35:23;26.90;43.60
13115;DHT22;6623;52.120;8.660;2023-06-14T13:37:49;26.80;43.50
13115;DHT22;6623;52.120;8.660;2023-06-14T13:40:15;26.80;43.50
13115;DHT22;6623;52.120;8.660;2023-06-14T13:42:40;26.80;43.50
13115;DHT22;6623;52.120;8.660;2023-06-14T13:45:07;26.80;43.50
13115;DHT22;6623;52.120;8.660;2023-06-14T13:47:32;26.80;43.50
13115;DHT22;6623;52.120;8.660;2023-06-14T13:49:58;26.80;43.50
13115;DHT22;6623;52.120;8.660;2023-06-14T13:52:24;26.80;43.50
13115;DHT22;6623;52.120;8.660;2023-06-14T13:54:50;26.80;43.50
13115;DHT22;6623;52.120;8.660;2023-06-14T13:57:16;26.80;43.50
13115;DHT22;6623;52.120;8.660;2023-06-14T13:59:42;26.80;43.50
13115;DHT22;6623;52.120;8.660;2023-06-14T14:02:10;26.80;43.50
13115;DHT22;6623;52.120;8.660;2023-06-14T14:04:37;26.80;43.50
13115;DHT22;6623;52.120;8.660;2023-06-14T14:07:03;26.90;43.60
13115;DHT22;6623;52.120;8.660;2023-06-14T14:09:30;26.80;43.50
13115;DHT22;6623;52.120;8.660;2023-06-14T14:11:56;26.80;43.50
13115;DHT22;6623;52.120;8.660;2023-06-14T14:14:21;26.80;43.50
13115;DHT22;6623;52.120;8.660;2023-06-14T14:16:48;26.90;43.60
13115;DHT22;6623;52.120;8.660;2023-06-14T14:19:13;26.90;43.60
13115;DHT22;6623;52.120;8.660;2023-06-14T14:21:39;26.80;43.50
13115;DHT22;6623;52.120;8.660;2023-06-14T14:24:05;26.80;43.50
13115;DHT22;6623;52.120;8.660;2023-06-14T14:26:30;26.80;43.50
13115;DHT22;6623;52.120;8.660;2023-06-14T14:28:56;26.90;43.50
13115;DHT22;6623;52.120;8.660;2023-06-14T14:31:21;26.80;43.50
13115;DHT22;6623;52.120;8.660;2023-06-14T14:33:47;26.90;43.50
13115;DHT22;6623;52.120;8.660;2023-06-14T14:36:12;26.90;43.60
13115;DHT22;6623;52.120;8.660;2023-06-14T14:38:39;26.80;43.50
13115;DHT22;6623;52.120;8.660;2023-06-14T14:41:05;26.80;43.40
13115;DHT22;6623;52.120;8.660;2023-06-14T14:43:30;26.80;43.50
13115;DHT22;6623;52.120;8.660;2023-06-14T14:45:57;26.80;43.50
13115;DHT22;6623;52.120;8.660;2023-06-14T14:48:22;26.80;43.50
13115;DHT22;6623;52.120;8.660;2023-06-14T14:50:48;26.90;43.50
13115;DHT22;6623;52.120;8.660;2023-06-14T14:53:13;26.90;43.50
13115;DHT22;6623;52.120;8.660;2023-06-14T14:55:42;26.80;43.50
13115;DHT22;6623;52.120;8.660;2023-06-14T14:58:08;26.80;43.40
13115;DHT22;6623;52.120;8.660;2023-06-14T15:00:34;26.80;43.40
13115;DHT22;6623;52.120;8.660;2023-06-14T15:03:00;26.90;43.50
13115;DHT22;6623;52.120;8.660;2023-06-14T15:05:25;26.80;43.40
13115;DHT22;6623;52.120;8.660;2023-06-14T15:07:51;26.80;43.50
13115;DHT22;6623;52.120;8.660;2023-06-14T15:10:16;26.90;43.50
13115;DHT22;6623;52.120;8.660;2023-06-14T15:12:42;26.90;43.50
13115;DHT22;6623;52.120;8.660;2023-06-14T15:15:08;26.80;43.40
13115;DHT22;6623;52.120;8.660;2023-06-14T15:17:35;26.90;43.50
13115;DHT22;6623;52.120;8.660;2023-06-14T15:20:00;26.80;43.40
13115;DHT22;6623;52.120;8.660;2023-06-14T15:22:26;26.90;43.50
13115;DHT22;6623;52.120;8.660;2023-06-14T15:24:52;26.90;43.50
13115;DHT22;6623;52.120;8.660;2023-06-14T15:27:17;26.80;43.40
13115;DHT22;6623;52.120;8.660;2023-06-14T15:29:44;26.90;43.50
13115;DHT22;6623;52.120;8.660;2023-06-14T15:32:10;26.90;43.50
13115;DHT22;6623;52.120;8.660;2023-06-14T15:34:36;26.90;43.40
13115;DHT22;6623;52.120;8.660;2023-06-14T15:37:05;26.90;43.40
13115;DHT22;6623;52.120;8.660;2023-06-14T15:39:31;26.90;43.50
13115;DHT22;6623;52.120;8.660;2023-06-14T15:41:57;26.80;43.40
13115;DHT22;6623;52.120;8.660;2023-06-14T15:44:23;26.90;43.50
13115;DHT22;6623;52.120;8.660;2023-06-14T15:46:48;26.90;43.50
13115;DHT22;6623;52.120;8.660;2023-06-14T15:49:14;26.90;43.50
13115;DHT22;6623;52.120;8.660;2023-06-14T15:51:40;26.90;43.50
13115;DHT22;6623;52.120;8.660;2023-06-14T15:54:05;26.90;43.40
13115;DHT22;6623;52.120;8.660;2023-06-14T15:56:32;26.90;43.50
13115;DHT22;6623;52.120;8.660;2023-06-14T15:58:57;26.90;43.50